sensor_id;sensor_type;location;lat;lon;timestamp;P1;durP1;ratioP1;P2;durP2;ratioP2
39930;SDS011;26635;-35.248;149.138;2024-01-11T00:02:19;4.85;;;3.55;;
39930;SDS011;26635;-35.248;149.138;2024-01-11T00:04:50;4.85;;;3.53;;
39930;SDS011;26635;-35.248;149.138;2024-01-11T00:07:20;4.50;;;3.47;;
39930;SDS011;26635;-35.248;149.138;2024-01-11T00:09:51;5.82;;;3.53;;
39930;SDS011;26635;-35.248;149.138;2024-01-11T00:12:21;6.28;;;3.85;;
39930;SDS011;26635;-35.248;149.138;2024-01-11T00:14:52;5.25;;;4.13;;
39930;SDS011;26635;-35.248;149.138;2024-01-11T00:17:23;4.43;;;2.63;;
39930;SDS011;26635;-35.248;149.138;2024-01-11T00:19:54;4.97;;;3.13;;
39930;SDS011;26635;-35.248;149.138;2024-01-11T00:22:24;5.57;;;3.33;;
39930;SDS011;26635;-35.248;149.138;2024-01-11T00:24:55;4.35;;;3.33;;
39930;SDS011;26635;-35.248;149.138;2024-01-11T00:27:25;3.22;;;2.90;;
39930;SDS011;26635;-35.248;149.138;2024-01-11T00:29:56;4.25;;;2.75;;
39930;SDS011;26635;-35.248;149.138;2024-01-11T00:32:26;3.35;;;2.00;;
39930;SDS011;26635;-35.248;149.138;2024-01-11T00:34:57;3.70;;;3.30;;
39930;SDS011;26635;-35.248;149.138;2024-01-11T00:37:28;4.07;;;2.85;;
39930;SDS011;26635;-35.248;149.138;2024-01-11T00:39:58;4.25;;;2.80;;
39930;SDS011;26635;-35.248;149.138;2024-01-11T00:42:28;4.47;;;2.90;;
39930;SDS011;26635;-35.248;149.138;2024-01-11T00:44:59;4.50;;;2.60;;
39930;SDS011;26635;-35.248;149.138;2024-01-11T00:47:30;3.47;;;2.67;;
39930;SDS011;26635;-35.248;149.138;2024-01-11T00:50:00;3.03;;;2.30;;
39930;SDS011;26635;-35.248;149.138;2024-01-11T00:52:31;3.28;;;2.70;;
39930;SDS011;26635;-35.248;149.138;2024-01-11T00:55:01;3.05;;;2.40;;
39930;SDS011;26635;-35.248;149.138;2024-01-11T00:57:32;3.97;;;2.85;;
39930;SDS011;26635;-35.248;149.138;2024-01-11T01:00:02;4.43;;;3.20;;
39930;SDS011;26635;-35.248;149.138;2024-01-11T01:02:33;3.85;;;2.25;;
39930;SDS011;26635;-35.248;149.138;2024-01-11T01:05:04;2.80;;;2.30;;
39930;SDS011;26635;-35.248;149.138;2024-01-11T01:07:35;2.72;;;2.20;;
39930;SDS011;26635;-35.248;149.138;2024-01-11T01:10:05;3.80;;;2.22;;
39930;SDS011;26635;-35.248;149.138;2024-01-11T01:12:37;2.40;;;2.13;;
39930;SDS011;26635;-35.248;149.138;2024-01-11T01:15:11;3.80;;;2.72;;
39930;SDS011;26635;-35.248;149.138;2024-01-11T01:18:01;3.08;;;2.08;;
39930;SDS011;26635;-35.248;149.138;2024-01-11T01:24:00;3.50;;;2.28;;
39930;SDS011;26635;-35.248;149.138;2024-01-11T01:27:11;2.90;;;2.08;;
39930;SDS011;26635;-35.248;149.138;2024-01-11T01:29:41;3.05;;;1.90;;
39930;SDS011;26635;-35.248;149.138;2024-01-11T01:32:12;3.67;;;2.05;;
39930;SDS011;26635;-35.248;149.138;2024-01-11T01:34:42;3.67;;;1.95;;
39930;SDS011;26635;-35.248;149.138;2024-01-11T01:37:14;2.90;;;1.88;;
39930;SDS011;26635;-35.248;149.138;2024-01-11T01:39:45;2.53;;;1.88;;
39930;SDS011;26635;-35.248;149.138;2024-01-11T01:42:15;2.03;;;1.80;;
39930;SDS011;26635;-35.248;149.138;2024-01-11T01:44:46;2.95;;;2.20;;
39930;SDS011;26635;-35.248;149.138;2024-01-11T01:47:16;4.68;;;1.92;;
39930;SDS011;26635;-35.248;149.138;2024-01-11T01:49:48;2.22;;;1.77;;
39930;SDS011;26635;-35.248;149.138;2024-01-11T01:52:19;2.83;;;1.90;;
39930;SDS011;26635;-35.248;149.138;2024-01-11T01:54:50;2.17;;;1.85;;
39930;SDS011;26635;-35.248;149.138;2024-01-11T01:57:21;2.25;;;1.80;;
39930;SDS011;26635;-35.248;149.138;2024-01-11T01:59:52;2.38;;;1.80;;
39930;SDS011;26635;-35.248;149.138;2024-01-11T02:02:23;3.05;;;2.17;;
39930;SDS011;26635;-35.248;149.138;2024-01-11T02:04:53;2.20;;;1.67;;
39930;SDS011;26635;-35.248;149.138;2024-01-11T02:07:24;2.70;;;1.77;;
39930;SDS011;26635;-35.248;149.138;2024-01-11T02:09:55;2.70;;;1.65;;
39930;SDS011;26635;-35.248;149.138;2024-01-11T02:12:26;1.67;;;1.40;;
39930;SDS011;26635;-35.248;149.138;2024-01-11T02:14:57;2.03;;;1.60;;
39930;SDS011;26635;-35.248;149.138;2024-01-11T02:17:28;2.78;;;1.45;;
39930;SDS011;26635;-35.248;149.138;2024-01-11T02:19:59;1.70;;;1.50;;
39930;SDS011;26635;-35.248;149.138;2024-01-11T02:22:32;2.42;;;1.55;;
39930;SDS011;26635;-35.248;149.138;2024-01-11T02:25:05;2.50;;;1.60;;
39930;SDS011;26635;-35.248;149.138;2024-01-11T02:27:48;2.30;;;1.65;;
39930;SDS011;26635;-35.248;149.138;2024-01-11T02:30:19;1.95;;;1.40;;
39930;SDS011;26635;-35.248;149.138;2024-01-11T02:32:51;5.03;;;2.20;;
39930;SDS011;26635;-35.248;149.138;2024-01-11T02:35:23;2.38;;;1.50;;
39930;SDS011;26635;-35.248;149.138;2024-01-11T02:37:55;1.85;;;1.27;;
39930;SDS011;26635;-35.248;149.138;2024-01-11T02:40:29;1.30;;;1.10;;
39930;SDS011;26635;-35.248;149.138;2024-01-11T02:43:09;1.40;;;1.23;;
39930;SDS011;26635;-35.248;149.138;2024-01-11T02:45:40;2.00;;;1.48;;
39930;SDS011;26635;-35.248;149.138;2024-01-11T02:48:11;1.90;;;1.23;;
39930;SDS011;26635;-35.248;149.138;2024-01-11T02:50:42;1.60;;;1.27;;
39930;SDS011;26635;-35.248;149.138;2024-01-11T02:53:13;2.00;;;1.40;;
39930;SDS011;26635;-35.248;149.138;2024-01-11T02:55:44;1.73;;;1.30;;
39930;SDS011;26635;-35.248;149.138;2024-01-11T02:58:15;1.83;;;1.23;;
39930;SDS011;26635;-35.248;149.138;2024-01-11T03:00:45;2.20;;;1.90;;
39930;SDS011;26635;-35.248;149.138;2024-01-11T03:03:16;1.75;;;1.50;;
39930;SDS011;26635;-35.248;149.138;2024-01-11T03:05:47;2.10;;;1.30;;
39930;SDS011;26635;-35.248;149.138;2024-01-11T03:08:21;1.38;;;1.15;;
39930;SDS011;26635;-35.248;149.138;2024-01-11T03:10:55;2.72;;;1.33;;
39930;SDS011;26635;-35.248;149.138;2024-01-11T03:13:26;1.30;;;1.10;;
39930;SDS011;26635;-35.248;149.138;2024-01-11T03:15:57;3.63;;;1.77;;
39930;SDS011;26635;-35.248;149.138;2024-01-11T03:18:27;1.92;;;1.33;;
39930;SDS011;26635;-35.248;149.138;2024-01-11T03:21:00;2.13;;;1.42;;
39930;SDS011;26635;-35.248;149.138;2024-01-11T03:23:30;3.13;;;1.27;;
39930;SDS011;26635;-35.248;149.138;2024-01-11T03:26:01;1.50;;;1.00;;
39930;SDS011;26635;-35.248;149.138;2024-01-11T03:28:31;1.90;;;1.10;;
39930;SDS011;26635;-35.248;149.138;2024-01-11T03:31:02;1.85;;;1.20;;
39930;SDS011;26635;-35.248;149.138;2024-01-11T03:33:32;2.35;;;0.90;;
39930;SDS011;26635;-35.248;149.138;2024-01-11T03:36:06;2.63;;;1.35;;
39930;SDS011;26635;-35.248;149.138;2024-01-11T03:38:37;2.45;;;1.25;;
39930;SDS011;26635;-35.248;149.138;2024-01-11T03:41:08;2.03;;;1.10;;
39930;SDS011;26635;-35.248;149.138;2024-01-11T03:43:39;2.25;;;1.20;;
39930;SDS011;26635;-35.248;149.138;2024-01-11T03:46:10;2.97;;;1.40;;
39930;SDS011;26635;-35.248;149.138;2024-01-11T03:48:40;1.60;;;1.17;;
39930;SDS011;26635;-35.248;149.138;2024-01-11T03:51:11;3.15;;;0.95;;
39930;SDS011;26635;-35.248;149.138;2024-01-11T03:53:41;2.45;;;1.77;;
39930;SDS011;26635;-35.248;149.138;2024-01-11T03:56:12;1.52;;;1.20;;
39930;SDS011;26635;-35.248;149.138;2024-01-11T03:58:42;1.17;;;1.05;;
39930;SDS011;26635;-35.248;149.138;2024-01-11T04:01:13;2.10;;;1.60;;
39930;SDS011;26635;-35.248;149.138;2024-01-11T04:03:44;1.83;;;1.20;;
39930;SDS011;26635;-35.248;149.138;2024-01-11T04:06:23;1.85;;;1.25;;
39930;SDS011;26635;-35.248;149.138;2024-01-11T04:08:54;2.20;;;1.75;;
39930;SDS011;26635;-35.248;149.138;2024-01-11T04:11:28;1.90;;;1.27;;
39930;SDS011;26635;-35.248;149.138;2024-01-11T04:13:59;2.55;;;1.30;;
39930;SDS011;26635;-35.248;149.138;2024-01-11T04:16:30;1.95;;;1.10;;
39930;SDS011;26635;-35.248;149.138;2024-01-11T04:19:01;1.48;;;1.25;;
39930;SDS011;26635;-35.248;149.138;2024-01-11T04:21:32;2.70;;;1.52;;
39930;SDS011;26635;-35.248;149.138;2024-01-11T04:24:03;2.60;;;1.48;;
39930;SDS011;26635;-35.248;149.138;2024-01-11T04:26:37;3.30;;;1.38;;
39930;SDS011;26635;-35.248;149.138;2024-01-11T04:29:07;1.95;;;1.40;;
39930;SDS011;26635;-35.248;149.138;2024-01-11T04:31:38;2.92;;;1.83;;
39930;SDS011;26635;-35.248;149.138;2024-01-11T04:34:08;2.15;;;1.35;;
39930;SDS011;26635;-35.248;149.138;2024-01-11T04:36:39;1.83;;;1.55;;
39930;SDS011;26635;-35.248;149.138;2024-01-11T04:39:09;2.72;;;1.15;;
39930;SDS011;26635;-35.248;149.138;2024-01-11T04:41:40;2.53;;;1.40;;
39930;SDS011;26635;-35.248;149.138;2024-01-11T04:44:11;2.05;;;1.45;;
39930;SDS011;26635;-35.248;149.138;2024-01-11T04:46:41;2.50;;;1.45;;
39930;SDS011;26635;-35.248;149.138;2024-01-11T04:49:12;2.67;;;1.70;;
39930;SDS011;26635;-35.248;149.138;2024-01-11T04:51:43;2.08;;;1.70;;
39930;SDS011;26635;-35.248;149.138;2024-01-11T04:54:13;1.77;;;1.52;;
39930;SDS011;26635;-35.248;149.138;2024-01-11T04:56:44;6.75;;;2.30;;
39930;SDS011;26635;-35.248;149.138;2024-01-11T04:59:14;2.25;;;1.50;;
39930;SDS011;26635;-35.248;149.138;2024-01-11T05:01:45;4.05;;;2.17;;
39930;SDS011;26635;-35.248;149.138;2024-01-11T05:04:16;2.70;;;1.90;;
39930;SDS011;26635;-35.248;149.138;2024-01-11T05:06:46;2.85;;;2.15;;
39930;SDS011;26635;-35.248;149.138;2024-01-11T05:09:17;2.80;;;2.13;;
39930;SDS011;26635;-35.248;149.138;2024-01-11T05:11:47;3.80;;;1.90;;
39930;SDS011;26635;-35.248;149.138;2024-01-11T05:14:18;2.17;;;1.60;;
39930;SDS011;26635;-35.248;149.138;2024-01-11T05:16:49;2.28;;;1.77;;
39930;SDS011;26635;-35.248;149.138;2024-01-11T05:19:19;4.28;;;2.25;;
39930;SDS011;26635;-35.248;149.138;2024-01-11T05:21:50;2.75;;;2.15;;
39930;SDS011;26635;-35.248;149.138;2024-01-11T05:24:20;2.92;;;1.65;;
39930;SDS011;26635;-35.248;149.138;2024-01-11T05:26:50;2.65;;;2.30;;
39930;SDS011;26635;-35.248;149.138;2024-01-11T05:29:21;4.25;;;1.77;;
39930;SDS011;26635;-35.248;149.138;2024-01-11T05:31:51;3.72;;;2.20;;
39930;SDS011;26635;-35.248;149.138;2024-01-11T05:34:22;2.25;;;1.60;;
39930;SDS011;26635;-35.248;149.138;2024-01-11T05:36:53;3.15;;;2.25;;
39930;SDS011;26635;-35.248;149.138;2024-01-11T05:39:26;3.30;;;2.10;;
39930;SDS011;26635;-35.248;149.138;2024-01-11T05:41:56;3.00;;;1.83;;
39930;SDS011;26635;-35.248;149.138;2024-01-11T05:44:27;3.33;;;2.35;;
39930;SDS011;26635;-35.248;149.138;2024-01-11T05:46:57;3.95;;;1.92;;
39930;SDS011;26635;-35.248;149.138;2024-01-11T05:49:28;4.88;;;1.80;;
39930;SDS011;26635;-35.248;149.138;2024-01-11T05:51:58;2.67;;;1.70;;
39930;SDS011;26635;-35.248;149.138;2024-01-11T05:54:29;3.20;;;2.00;;
39930;SDS011;26635;-35.248;149.138;2024-01-11T05:57:00;3.10;;;2.28;;
39930;SDS011;26635;-35.248;149.138;2024-01-11T05:59:31;3.08;;;2.17;;
39930;SDS011;26635;-35.248;149.138;2024-01-11T06:02:01;2.90;;;1.67;;
39930;SDS011;26635;-35.248;149.138;2024-01-11T06:04:32;2.63;;;1.80;;
39930;SDS011;26635;-35.248;149.138;2024-01-11T06:07:03;3.22;;;2.10;;
39930;SDS011;26635;-35.248;149.138;2024-01-11T06:09:34;3.33;;;2.25;;
39930;SDS011;26635;-35.248;149.138;2024-01-11T06:12:05;3.53;;;1.88;;
39930;SDS011;26635;-35.248;149.138;2024-01-11T06:14:37;2.83;;;2.00;;
39930;SDS011;26635;-35.248;149.138;2024-01-11T06:17:07;3.90;;;2.28;;
39930;SDS011;26635;-35.248;149.138;2024-01-11T06:19:39;3.00;;;2.10;;
39930;SDS011;26635;-35.248;149.138;2024-01-11T06:22:10;2.42;;;1.73;;
39930;SDS011;26635;-35.248;149.138;2024-01-11T06:24:40;2.55;;;1.83;;
39930;SDS011;26635;-35.248;149.138;2024-01-11T06:27:11;3.97;;;1.85;;
39930;SDS011;26635;-35.248;149.138;2024-01-11T06:29:41;3.15;;;1.67;;
39930;SDS011;26635;-35.248;149.138;2024-01-11T06:32:12;2.63;;;1.73;;
39930;SDS011;26635;-35.248;149.138;2024-01-11T06:34:42;3.47;;;2.05;;
39930;SDS011;26635;-35.248;149.138;2024-01-11T06:37:14;2.33;;;1.60;;
39930;SDS011;26635;-35.248;149.138;2024-01-11T06:39:45;2.28;;;1.67;;
39930;SDS011;26635;-35.248;149.138;2024-01-11T06:42:15;2.10;;;1.50;;
39930;SDS011;26635;-35.248;149.138;2024-01-11T06:44:46;2.45;;;1.92;;
39930;SDS011;26635;-35.248;149.138;2024-01-11T06:47:16;2.50;;;1.73;;
39930;SDS011;26635;-35.248;149.138;2024-01-11T06:49:47;2.72;;;2.00;;
39930;SDS011;26635;-35.248;149.138;2024-01-11T06:52:18;9.10;;;2.33;;
39930;SDS011;26635;-35.248;149.138;2024-01-11T06:54:48;2.15;;;1.75;;
39930;SDS011;26635;-35.248;149.138;2024-01-11T06:57:18;2.45;;;1.80;;
39930;SDS011;26635;-35.248;149.138;2024-01-11T06:59:49;2.53;;;1.75;;
39930;SDS011;26635;-35.248;149.138;2024-01-11T07:02:20;2.50;;;1.85;;
39930;SDS011;26635;-35.248;149.138;2024-01-11T07:04:52;3.22;;;2.00;;
39930;SDS011;26635;-35.248;149.138;2024-01-11T07:07:22;3.22;;;1.80;;
39930;SDS011;26635;-35.248;149.138;2024-01-11T07:09:53;3.50;;;1.83;;
39930;SDS011;26635;-35.248;149.138;2024-01-11T07:12:24;3.25;;;2.22;;
39930;SDS011;26635;-35.248;149.138;2024-01-11T07:14:55;2.00;;;1.52;;
39930;SDS011;26635;-35.248;149.138;2024-01-11T07:17:26;3.17;;;1.95;;
39930;SDS011;26635;-35.248;149.138;2024-01-11T07:20:52;2.90;;;1.83;;
39930;SDS011;26635;-35.248;149.138;2024-01-11T07:23:26;4.15;;;1.90;;
39930;SDS011;26635;-35.248;149.138;2024-01-11T07:25:56;4.05;;;2.28;;
39930;SDS011;26635;-35.248;149.138;2024-01-11T07:28:29;2.85;;;2.30;;
39930;SDS011;26635;-35.248;149.138;2024-01-11T07:31:00;3.15;;;1.92;;
39930;SDS011;26635;-35.248;149.138;2024-01-11T07:33:30;3.78;;;1.80;;
39930;SDS011;26635;-35.248;149.138;2024-01-11T07:36:02;3.20;;;2.17;;
39930;SDS011;26635;-35.248;149.138;2024-01-11T07:38:32;2.80;;;1.80;;
39930;SDS011;26635;-35.248;149.138;2024-01-11T07:41:03;2.78;;;1.60;;
39930;SDS011;26635;-35.248;149.138;2024-01-11T07:43:33;2.88;;;1.85;;
39930;SDS011;26635;-35.248;149.138;2024-01-11T07:46:19;4.43;;;1.90;;
39930;SDS011;26635;-35.248;149.138;2024-01-11T07:49:04;2.80;;;2.30;;
39930;SDS011;26635;-35.248;149.138;2024-01-11T07:51:36;3.35;;;1.95;;
39930;SDS011;26635;-35.248;149.138;2024-01-11T07:54:07;3.22;;;2.03;;
39930;SDS011;26635;-35.248;149.138;2024-01-11T07:56:38;4.25;;;1.98;;
39930;SDS011;26635;-35.248;149.138;2024-01-11T07:59:09;2.92;;;1.50;;
39930;SDS011;26635;-35.248;149.138;2024-01-11T08:01:43;5.55;;;1.80;;
39930;SDS011;26635;-35.248;149.138;2024-01-11T08:04:14;2.58;;;1.40;;
39930;SDS011;26635;-35.248;149.138;2024-01-11T08:06:44;2.63;;;1.70;;
39930;SDS011;26635;-35.248;149.138;2024-01-11T08:09:15;2.15;;;1.50;;
39930;SDS011;26635;-35.248;149.138;2024-01-11T08:11:47;4.82;;;2.40;;
39930;SDS011;26635;-35.248;149.138;2024-01-11T08:14:19;2.47;;;1.67;;
39930;SDS011;26635;-35.248;149.138;2024-01-11T08:16:50;3.40;;;2.20;;
39930;SDS011;26635;-35.248;149.138;2024-01-11T08:19:22;3.72;;;1.75;;
39930;SDS011;26635;-35.248;149.138;2024-01-11T08:21:53;2.90;;;1.92;;
39930;SDS011;26635;-35.248;149.138;2024-01-11T08:24:25;3.60;;;1.60;;
39930;SDS011;26635;-35.248;149.138;2024-01-11T08:26:55;2.83;;;1.85;;
39930;SDS011;26635;-35.248;149.138;2024-01-11T08:29:26;4.15;;;2.03;;
39930;SDS011;26635;-35.248;149.138;2024-01-11T08:31:56;1.90;;;1.45;;
39930;SDS011;26635;-35.248;149.138;2024-01-11T08:34:28;2.28;;;1.40;;
39930;SDS011;26635;-35.248;149.138;2024-01-11T08:36:59;3.20;;;1.48;;
39930;SDS011;26635;-35.248;149.138;2024-01-11T08:39:29;2.65;;;1.73;;
39930;SDS011;26635;-35.248;149.138;2024-01-11T08:42:00;2.78;;;1.60;;
39930;SDS011;26635;-35.248;149.138;2024-01-11T08:44:30;2.35;;;1.50;;
39930;SDS011;26635;-35.248;149.138;2024-01-11T08:47:01;2.65;;;1.73;;
39930;SDS011;26635;-35.248;149.138;2024-01-11T08:49:32;4.13;;;1.40;;
39930;SDS011;26635;-35.248;149.138;2024-01-11T08:52:05;2.28;;;1.30;;
39930;SDS011;26635;-35.248;149.138;2024-01-11T08:54:37;2.80;;;1.58;;
39930;SDS011;26635;-35.248;149.138;2024-01-11T08:57:07;2.80;;;1.45;;
39930;SDS011;26635;-35.248;149.138;2024-01-11T08:59:38;3.25;;;1.40;;
39930;SDS011;26635;-35.248;149.138;2024-01-11T09:02:08;5.63;;;2.30;;
39930;SDS011;26635;-35.248;149.138;2024-01-11T09:04:45;2.88;;;1.70;;
39930;SDS011;26635;-35.248;149.138;2024-01-11T09:07:16;3.13;;;1.58;;
39930;SDS011;26635;-35.248;149.138;2024-01-11T09:09:46;3.03;;;1.80;;
39930;SDS011;26635;-35.248;149.138;2024-01-11T09:12:23;3.60;;;1.65;;
39930;SDS011;26635;-35.248;149.138;2024-01-11T09:14:54;1.90;;;1.52;;
39930;SDS011;26635;-35.248;149.138;2024-01-11T09:17:24;3.83;;;1.48;;
39930;SDS011;26635;-35.248;149.138;2024-01-11T09:19:55;3.67;;;1.60;;
39930;SDS011;26635;-35.248;149.138;2024-01-11T09:22:26;2.53;;;1.50;;
39930;SDS011;26635;-35.248;149.138;2024-01-11T09:24:58;2.92;;;1.50;;
39930;SDS011;26635;-35.248;149.138;2024-01-11T09:27:28;2.60;;;1.58;;
39930;SDS011;26635;-35.248;149.138;2024-01-11T09:29:59;1.88;;;1.42;;
39930;SDS011;26635;-35.248;149.138;2024-01-11T09:32:29;4.15;;;1.90;;
39930;SDS011;26635;-35.248;149.138;2024-01-11T09:35:00;3.28;;;2.08;;
39930;SDS011;26635;-35.248;149.138;2024-01-11T09:37:33;2.53;;;1.67;;
39930;SDS011;26635;-35.248;149.138;2024-01-11T09:40:04;3.97;;;1.50;;
39930;SDS011;26635;-35.248;149.138;2024-01-11T09:42:39;4.20;;;1.65;;
39930;SDS011;26635;-35.248;149.138;2024-01-11T09:45:13;3.33;;;1.98;;
39930;SDS011;26635;-35.248;149.138;2024-01-11T09:47:45;2.90;;;1.75;;
39930;SDS011;26635;-35.248;149.138;2024-01-11T09:50:17;2.28;;;1.73;;
39930;SDS011;26635;-35.248;149.138;2024-01-11T09:52:48;3.42;;;1.92;;
39930;SDS011;26635;-35.248;149.138;2024-01-11T09:55:19;3.45;;;2.60;;
39930;SDS011;26635;-35.248;149.138;2024-01-11T09:57:51;2.75;;;2.13;;
39930;SDS011;26635;-35.248;149.138;2024-01-11T10:00:26;4.50;;;2.58;;
39930;SDS011;26635;-35.248;149.138;2024-01-11T10:02:58;2.42;;;1.73;;
39930;SDS011;26635;-35.248;149.138;2024-01-11T10:05:28;4.40;;;2.90;;
39930;SDS011;26635;-35.248;149.138;2024-01-11T10:07:59;3.22;;;2.05;;
39930;SDS011;26635;-35.248;149.138;2024-01-11T10:10:30;3.88;;;2.42;;
39930;SDS011;26635;-35.248;149.138;2024-01-11T10:13:01;3.92;;;1.80;;
39930;SDS011;26635;-35.248;149.138;2024-01-11T10:15:32;4.53;;;2.60;;
39930;SDS011;26635;-35.248;149.138;2024-01-11T10:18:03;2.97;;;2.22;;
39930;SDS011;26635;-35.248;149.138;2024-01-11T10:20:34;4.88;;;2.35;;
39930;SDS011;26635;-35.248;149.138;2024-01-11T10:23:05;2.88;;;2.08;;
39930;SDS011;26635;-35.248;149.138;2024-01-11T10:25:36;4.22;;;2.20;;
39930;SDS011;26635;-35.248;149.138;2024-01-11T10:28:07;2.67;;;2.05;;
39930;SDS011;26635;-35.248;149.138;2024-01-11T10:30:56;4.45;;;2.40;;
39930;SDS011;26635;-35.248;149.138;2024-01-11T10:33:27;4.82;;;2.42;;
39930;SDS011;26635;-35.248;149.138;2024-01-11T10:35:58;4.82;;;2.47;;
39930;SDS011;26635;-35.248;149.138;2024-01-11T10:38:30;4.05;;;2.10;;
39930;SDS011;26635;-35.248;149.138;2024-01-11T10:41:08;4.18;;;2.30;;
39930;SDS011;26635;-35.248;149.138;2024-01-11T10:43:41;2.67;;;1.73;;
39930;SDS011;26635;-35.248;149.138;2024-01-11T10:46:13;2.90;;;1.98;;
39930;SDS011;26635;-35.248;149.138;2024-01-11T10:48:52;5.38;;;2.85;;
39930;SDS011;26635;-35.248;149.138;2024-01-11T10:51:29;5.22;;;2.47;;
39930;SDS011;26635;-35.248;149.138;2024-01-11T10:54:02;4.78;;;2.45;;
39930;SDS011;26635;-35.248;149.138;2024-01-11T10:56:33;6.18;;;3.05;;
39930;SDS011;26635;-35.248;149.138;2024-01-11T10:59:07;4.63;;;2.92;;
39930;SDS011;26635;-35.248;149.138;2024-01-11T11:01:39;3.67;;;2.03;;
39930;SDS011;26635;-35.248;149.138;2024-01-11T11:04:10;4.05;;;2.38;;
39930;SDS011;26635;-35.248;149.138;2024-01-11T11:06:43;3.00;;;2.00;;
39930;SDS011;26635;-35.248;149.138;2024-01-11T11:09:14;4.07;;;1.90;;
39930;SDS011;26635;-35.248;149.138;2024-01-11T11:11:46;4.35;;;1.90;;
39930;SDS011;26635;-35.248;149.138;2024-01-11T11:14:18;3.30;;;1.88;;
39930;SDS011;26635;-35.248;149.138;2024-01-11T11:16:50;3.13;;;1.60;;
39930;SDS011;26635;-35.248;149.138;2024-01-11T11:19:22;4.25;;;1.95;;
39930;SDS011;26635;-35.248;149.138;2024-01-11T11:21:53;3.10;;;2.00;;
39930;SDS011;26635;-35.248;149.138;2024-01-11T11:24:23;3.72;;;2.13;;
39930;SDS011;26635;-35.248;149.138;2024-01-11T11:26:54;3.30;;;1.70;;
39930;SDS011;26635;-35.248;149.138;2024-01-11T11:29:30;3.65;;;2.00;;
39930;SDS011;26635;-35.248;149.138;2024-01-11T11:32:01;3.92;;;1.90;;
39930;SDS011;26635;-35.248;149.138;2024-01-11T11:34:40;5.00;;;2.03;;
39930;SDS011;26635;-35.248;149.138;2024-01-11T11:37:22;3.50;;;1.60;;
39930;SDS011;26635;-35.248;149.138;2024-01-11T11:39:53;5.65;;;2.10;;
39930;SDS011;26635;-35.248;149.138;2024-01-11T11:42:26;3.47;;;1.70;;
39930;SDS011;26635;-35.248;149.138;2024-01-11T11:44:59;3.72;;;1.98;;
39930;SDS011;26635;-35.248;149.138;2024-01-11T11:47:36;3.28;;;1.92;;
39930;SDS011;26635;-35.248;149.138;2024-01-11T11:50:10;4.10;;;2.20;;
39930;SDS011;26635;-35.248;149.138;2024-01-11T11:52:42;3.42;;;1.70;;
39930;SDS011;26635;-35.248;149.138;2024-01-11T11:55:15;2.63;;;1.58;;
39930;SDS011;26635;-35.248;149.138;2024-01-11T11:57:46;4.07;;;1.88;;
39930;SDS011;26635;-35.248;149.138;2024-01-11T12:00:20;4.03;;;1.98;;
39930;SDS011;26635;-35.248;149.138;2024-01-11T12:02:53;4.97;;;2.20;;
39930;SDS011;26635;-35.248;149.138;2024-01-11T12:05:26;3.88;;;1.80;;
39930;SDS011;26635;-35.248;149.138;2024-01-11T12:07:57;2.50;;;1.50;;
39930;SDS011;26635;-35.248;149.138;2024-01-11T12:10:27;6.32;;;4.28;;
39930;SDS011;26635;-35.248;149.138;2024-01-11T12:12:58;3.08;;;1.88;;
39930;SDS011;26635;-35.248;149.138;2024-01-11T12:15:29;2.90;;;1.23;;
39930;SDS011;26635;-35.248;149.138;2024-01-11T12:17:59;3.78;;;1.70;;
39930;SDS011;26635;-35.248;149.138;2024-01-11T12:20:30;3.08;;;1.50;;
39930;SDS011;26635;-35.248;149.138;2024-01-11T12:23:01;2.97;;;1.48;;
39930;SDS011;26635;-35.248;149.138;2024-01-11T12:25:32;2.75;;;1.50;;
39930;SDS011;26635;-35.248;149.138;2024-01-11T12:28:02;3.55;;;1.80;;
39930;SDS011;26635;-35.248;149.138;2024-01-11T12:30:36;4.55;;;1.73;;
39930;SDS011;26635;-35.248;149.138;2024-01-11T12:33:08;2.10;;;1.15;;
39930;SDS011;26635;-35.248;149.138;2024-01-11T12:35:39;4.68;;;1.50;;
39930;SDS011;26635;-35.248;149.138;2024-01-11T12:38:10;2.47;;;1.40;;
39930;SDS011;26635;-35.248;149.138;2024-01-11T12:40:43;2.17;;;1.10;;
39930;SDS011;26635;-35.248;149.138;2024-01-11T12:43:15;2.50;;;1.00;;
39930;SDS011;26635;-35.248;149.138;2024-01-11T12:45:45;3.35;;;1.40;;
39930;SDS011;26635;-35.248;149.138;2024-01-11T12:48:16;2.65;;;1.27;;
39930;SDS011;26635;-35.248;149.138;2024-01-11T12:50:47;2.75;;;1.27;;
39930;SDS011;26635;-35.248;149.138;2024-01-11T12:53:31;2.95;;;1.55;;
39930;SDS011;26635;-35.248;149.138;2024-01-11T12:56:05;3.30;;;1.13;;
39930;SDS011;26635;-35.248;149.138;2024-01-11T12:58:40;3.38;;;1.23;;
39930;SDS011;26635;-35.248;149.138;2024-01-11T13:01:11;2.38;;;1.48;;
39930;SDS011;26635;-35.248;149.138;2024-01-11T13:03:46;2.58;;;1.20;;
39930;SDS011;26635;-35.248;149.138;2024-01-11T13:06:16;3.67;;;1.55;;
39930;SDS011;26635;-35.248;149.138;2024-01-11T13:08:48;2.15;;;1.00;;
39930;SDS011;26635;-35.248;149.138;2024-01-11T13:11:19;1.45;;;0.90;;
39930;SDS011;26635;-35.248;149.138;2024-01-11T13:13:50;4.75;;;1.38;;
39930;SDS011;26635;-35.248;149.138;2024-01-11T13:16:20;2.67;;;1.25;;
39930;SDS011;26635;-35.248;149.138;2024-01-11T13:18:53;4.13;;;1.30;;
39930;SDS011;26635;-35.248;149.138;2024-01-11T13:21:25;2.53;;;1.50;;
39930;SDS011;26635;-35.248;149.138;2024-01-11T13:23:55;3.92;;;1.02;;
39930;SDS011;26635;-35.248;149.138;2024-01-11T13:26:26;4.40;;;2.03;;
39930;SDS011;26635;-35.248;149.138;2024-01-11T13:28:58;3.17;;;1.50;;
39930;SDS011;26635;-35.248;149.138;2024-01-11T13:31:29;2.92;;;1.38;;
39930;SDS011;26635;-35.248;149.138;2024-01-11T13:34:01;2.72;;;1.30;;
39930;SDS011;26635;-35.248;149.138;2024-01-11T13:36:32;2.17;;;1.10;;
39930;SDS011;26635;-35.248;149.138;2024-01-11T13:39:02;2.20;;;1.38;;
39930;SDS011;26635;-35.248;149.138;2024-01-11T13:41:33;3.28;;;1.63;;
39930;SDS011;26635;-35.248;149.138;2024-01-11T13:44:04;1.60;;;0.95;;
39930;SDS011;26635;-35.248;149.138;2024-01-11T13:46:34;2.40;;;1.00;;
39930;SDS011;26635;-35.248;149.138;2024-01-11T13:49:05;3.03;;;1.70;;
39930;SDS011;26635;-35.248;149.138;2024-01-11T13:51:35;3.00;;;1.27;;
39930;SDS011;26635;-35.248;149.138;2024-01-11T13:54:19;2.70;;;1.50;;
39930;SDS011;26635;-35.248;149.138;2024-01-11T13:56:52;1.48;;;0.80;;
39930;SDS011;26635;-35.248;149.138;2024-01-11T13:59:23;2.00;;;1.55;;
39930;SDS011;26635;-35.248;149.138;2024-01-11T14:01:54;2.05;;;1.20;;
39930;SDS011;26635;-35.248;149.138;2024-01-11T14:04:25;2.13;;;1.30;;
39930;SDS011;26635;-35.248;149.138;2024-01-11T14:06:55;2.05;;;1.33;;
39930;SDS011;26635;-35.248;149.138;2024-01-11T14:09:26;2.58;;;0.95;;
39930;SDS011;26635;-35.248;149.138;2024-01-11T14:11:56;2.45;;;1.05;;
39930;SDS011;26635;-35.248;149.138;2024-01-11T14:14:27;3.40;;;1.42;;
39930;SDS011;26635;-35.248;149.138;2024-01-11T14:16:59;1.75;;;1.00;;
39930;SDS011;26635;-35.248;149.138;2024-01-11T14:19:31;3.55;;;1.40;;
39930;SDS011;26635;-35.248;149.138;2024-01-11T14:22:01;2.00;;;1.25;;
39930;SDS011;26635;-35.248;149.138;2024-01-11T14:24:32;2.42;;;1.20;;
39930;SDS011;26635;-35.248;149.138;2024-01-11T14:27:03;2.38;;;1.10;;
39930;SDS011;26635;-35.248;149.138;2024-01-11T14:29:35;1.95;;;1.15;;
39930;SDS011;26635;-35.248;149.138;2024-01-11T14:32:06;2.55;;;1.10;;
39930;SDS011;26635;-35.248;149.138;2024-01-11T14:34:38;1.77;;;1.08;;
39930;SDS011;26635;-35.248;149.138;2024-01-11T14:37:10;1.48;;;0.80;;
39930;SDS011;26635;-35.248;149.138;2024-01-11T14:39:41;1.92;;;1.00;;